createdAt,value
2023-04-16T00:01:03.007Z,100686.86
2023-04-16T00:03:31.793Z,100692.86
2023-04-16T00:06:00.768Z,100689.27
2023-04-16T00:08:29.085Z,100689.16
2023-04-16T00:10:57.286Z,100688.02
2023-04-16T00:13:27.654Z,100690.17
2023-04-16T00:15:56.197Z,100692.37
2023-04-16T00:18:24.572Z,100695.93
2023-04-16T00:20:53.673Z,100689.21
2023-04-16T00:23:22.064Z,100688.36
2023-04-16T00:25:50.396Z,100695.86
2023-04-16T00:28:18.630Z,100693.13
2023-04-16T00:30:46.991Z,100692.77
2023-04-16T00:33:16.122Z,100692.34
2023-04-16T00:35:47.977Z,100689.91
2023-04-16T00:38:16.865Z,100694.18
2023-04-16T00:40:45.139Z,100696.70
2023-04-16T00:43:21.941Z,100692.36
2023-04-16T00:45:50.546Z,100690.80
2023-04-16T00:48:20.608Z,100694.92
2023-04-16T00:50:48.907Z,100697.41
2023-04-16T00:53:17.108Z,100704.70
2023-04-16T00:55:45.918Z,100705.45
2023-04-16T00:58:14.467Z,100695.46
2023-04-16T01:00:42.595Z,100700.95
2023-04-16T01:03:11.179Z,100696.88
2023-04-16T01:05:40.533Z,100692.40
2023-04-16T01:08:27.336Z,100692.50
2023-04-16T01:10:56.644Z,100692.79
2023-04-16T01:13:24.930Z,100696.75
2023-04-16T01:15:53.122Z,100691.65
2023-04-16T01:18:25.069Z,100688.20
2023-04-16T01:20:53.352Z,100679.59
2023-04-16T01:23:23.306Z,100680.08
2023-04-16T01:25:51.651Z,100674.38
2023-04-16T01:28:20.037Z,100669.98
2023-04-16T01:30:48.437Z,100673.68
2023-04-16T01:33:37.167Z,100665.77
2023-04-16T01:36:06.241Z,100664.42
2023-04-16T01:38:36.899Z,100669.81
2023-04-16T01:41:05.076Z,100660.85
2023-04-16T01:43:33.362Z,100666.99
2023-04-16T01:46:15.391Z,100665.79
2023-04-16T01:48:43.633Z,100659.94
2023-04-16T01:51:11.914Z,100672.02
2023-04-16T01:53:40.190Z,100668.08
2023-04-16T01:56:11.339Z,100667.24
2023-04-16T01:58:42.909Z,100668.72
2023-04-16T02:01:11.324Z,100665.70
2023-04-16T02:03:40.185Z,100678.93
2023-04-16T02:06:11.341Z,100666.89
2023-04-16T02:08:39.805Z,100677.15
2023-04-16T02:11:08.599Z,100673.40
2023-04-16T02:13:37.487Z,100679.23
2023-04-16T02:16:06.298Z,100675.73
2023-04-16T02:18:46.537Z,100667.09
2023-04-16T02:21:16.473Z,100670.55
2023-04-16T02:23:47.916Z,100666.48
2023-04-16T02:26:17.410Z,100660.98
2023-04-16T02:28:46.434Z,100666.45
2023-04-16T02:31:18.093Z,100660.55
2023-04-16T02:33:47.165Z,100653.97
2023-04-16T02:36:15.759Z,100663.60
2023-04-16T02:38:43.892Z,100664.41
2023-04-16T02:41:12.420Z,100666.16
2023-04-16T02:43:41.110Z,100663.34
2023-04-16T02:46:09.994Z,100670.45
2023-04-16T02:48:39.203Z,100674.41
2023-04-16T02:51:07.589Z,100677.34
2023-04-16T02:53:36.277Z,100678.55
2023-04-16T02:56:05.175Z,100674.23
2023-04-16T02:58:33.877Z,100679.59
2023-04-16T03:01:02.243Z,100683.54
2023-04-16T03:03:30.941Z,100685.78
2023-04-16T03:05:59.214Z,100692.00
2023-04-16T03:08:28.624Z,100697.17
2023-04-16T03:10:56.852Z,100700.36
2023-04-16T03:13:26.288Z,100704.55
2023-04-16T03:15:54.456Z,100707.22
2023-04-16T03:18:22.952Z,100709.99
2023-04-16T03:20:54.493Z,100709.90
2023-04-16T03:23:23.535Z,100712.48
2023-04-16T03:25:52.027Z,100714.96
2023-04-16T03:28:20.615Z,100713.46
2023-04-16T03:30:54.858Z,100713.40
2023-04-16T03:33:23.305Z,100723.95
2023-04-16T03:35:58.508Z,100732.98
2023-04-16T03:38:28.769Z,100731.53
2023-04-16T03:41:05.851Z,100731.58
2023-04-16T03:43:34.428Z,100736.04
2023-04-16T03:46:02.754Z,100734.48
2023-04-16T03:48:31.186Z,100736.02
2023-04-16T03:50:59.785Z,100737.41
2023-04-16T03:53:28.375Z,100734.65
2023-04-16T03:55:56.657Z,100733.48
2023-04-16T03:58:25.544Z,100732.52
2023-04-16T04:00:55.510Z,100739.04
2023-04-16T04:03:24.344Z,100749.78
2023-04-16T04:05:52.750Z,100748.72
2023-04-16T04:08:26.966Z,100748.46
2023-04-16T04:10:55.354Z,100751.48
2023-04-16T04:13:24.980Z,100753.00
2023-04-16T04:15:53.664Z,100759.00
2023-04-16T04:18:22.455Z,100750.08
2023-04-16T04:20:51.035Z,100757.17
2023-04-16T04:23:21.350Z,100760.45
2023-04-16T04:25:49.770Z,100759.60
2023-04-16T04:28:18.237Z,100759.68
2023-04-16T04:30:46.821Z,100755.85
2023-04-16T04:33:15.612Z,100757.29
2023-04-16T04:35:44.094Z,100765.73
2023-04-16T04:38:14.297Z,100764.90
2023-04-16T04:40:44.551Z,100763.52
2023-04-16T04:43:12.770Z,100758.46
2023-04-16T04:45:41.227Z,100762.30
2023-04-16T04:48:09.474Z,100762.88
2023-04-16T04:50:37.764Z,100758.95
2023-04-16T04:53:10.076Z,100766.08
2023-04-16T04:55:41.699Z,100764.06
2023-04-16T04:58:10.514Z,100757.73
2023-04-16T05:00:38.876Z,100767.73
2023-04-16T05:03:11.351Z,100760.28
2023-04-16T05:05:40.790Z,100751.71
2023-04-16T05:08:08.999Z,100750.89
2023-04-16T05:10:37.585Z,100752.05
2023-04-16T05:13:05.801Z,100754.12
2023-04-16T05:15:34.084Z,100751.13
2023-04-16T05:18:02.447Z,100762.54
2023-04-16T05:20:31.203Z,100759.77
2023-04-16T05:22:59.338Z,100762.84
2023-04-16T05:25:27.824Z,100754.59
2023-04-16T05:27:56.099Z,100761.20
2023-04-16T05:30:24.378Z,100762.02
2023-04-16T05:32:52.923Z,100761.38
2023-04-16T05:35:21.381Z,100761.59
2023-04-16T05:37:49.944Z,100768.29
2023-04-16T05:40:18.428Z,100769.09
2023-04-16T05:42:46.705Z,100769.91
2023-04-16T05:45:14.960Z,100761.32
2023-04-16T05:47:44.828Z,100754.71
2023-04-16T05:50:12.996Z,100768.34
2023-04-16T05:52:41.878Z,100763.81
2023-04-16T05:55:10.623Z,100757.08
2023-04-16T05:57:38.852Z,100758.41
2023-04-16T06:00:08.317Z,100759.77
2023-04-16T06:02:42.890Z,100755.69
2023-04-16T06:05:11.412Z,100778.02
2023-04-16T06:07:40.060Z,100770.12
2023-04-16T06:10:09.105Z,100760.34
2023-04-16T06:12:37.417Z,100774.98
2023-04-16T06:15:06.578Z,100770.85
2023-04-16T06:17:35.366Z,100767.69
2023-04-16T06:20:03.802Z,100776.20
2023-04-16T06:22:33.729Z,100774.25
2023-04-16T06:25:02.050Z,100771.87
2023-04-16T06:27:31.518Z,100766.86
2023-04-16T06:29:59.607Z,100780.98
2023-04-16T06:32:27.888Z,100781.08
2023-04-16T06:34:56.592Z,100786.88
2023-04-16T06:37:24.831Z,100784.16
2023-04-16T06:39:53.021Z,100780.43
2023-04-16T06:42:21.211Z,100783.65
2023-04-16T06:44:49.505Z,100770.59
2023-04-16T06:47:17.826Z,100783.92
2023-04-16T06:49:46.158Z,100781.06
2023-04-16T06:52:15.030Z,100781.28
2023-04-16T06:54:43.730Z,100785.09
2023-04-16T06:57:12.049Z,100783.92
2023-04-16T06:59:40.989Z,100774.30
2023-04-16T07:02:10.655Z,100788.05
2023-04-16T07:04:39.311Z,100788.07
2023-04-16T07:07:07.580Z,100791.19
2023-04-16T07:09:36.907Z,100786.97
2023-04-16T07:12:07.188Z,100789.58
2023-04-16T07:14:35.607Z,100782.25
2023-04-16T07:17:04.193Z,100786.80
2023-04-16T07:19:32.984Z,100780.23
2023-04-16T07:22:01.469Z,100790.08
2023-04-16T07:24:30.169Z,100793.27
2023-04-16T07:26:59.064Z,100790.32
2023-04-16T07:29:27.179Z,100789.06
2023-04-16T07:31:55.762Z,100789.95
2023-04-16T07:34:23.930Z,100786.33
2023-04-16T07:36:52.183Z,100782.88
2023-04-16T07:39:20.569Z,100781.28
2023-04-16T07:41:48.901Z,100778.38
2023-04-16T07:44:17.224Z,100786.48
2023-04-16T07:46:47.405Z,100776.44
2023-04-16T07:49:16.084Z,100769.75
2023-04-16T07:51:44.637Z,100765.55
2023-04-16T07:54:12.912Z,100768.33
2023-04-16T07:56:41.400Z,100757.22
2023-04-16T07:59:21.805Z,100758.34
2023-04-16T08:01:52.953Z,100754.23
2023-04-16T08:04:25.749Z,100768.73
2023-04-16T08:06:55.996Z,100761.30
2023-04-16T08:09:27.360Z,100753.27
2023-04-16T08:11:55.561Z,100755.45
2023-04-16T08:14:23.804Z,100746.38
2023-04-16T08:16:52.415Z,100761.45
2023-04-16T08:19:20.587Z,100751.91
2023-04-16T08:21:49.579Z,100751.73
2023-04-16T08:24:17.798Z,100752.77
2023-04-16T08:26:46.040Z,100740.83
2023-04-16T08:29:14.314Z,100749.15
2023-04-16T08:31:42.749Z,100756.77
2023-04-16T08:34:12.083Z,100753.05
2023-04-16T08:36:41.633Z,100752.23
2023-04-16T08:39:10.174Z,100766.08
2023-04-16T08:41:41.898Z,100758.70
2023-04-16T08:44:13.790Z,100746.69
2023-04-16T08:46:42.058Z,100743.13
2023-04-16T08:49:11.789Z,100742.05
2023-04-16T08:51:40.102Z,100746.52
2023-04-16T08:54:12.365Z,100743.09
2023-04-16T08:56:42.479Z,100739.32
2023-04-16T08:59:11.760Z,100739.69
2023-04-16T09:01:42.022Z,100745.28
2023-04-16T09:04:10.375Z,100743.80
2023-04-16T09:06:38.855Z,100760.10
2023-04-16T09:09:07.253Z,100736.03
2023-04-16T09:11:35.763Z,100733.08
2023-04-16T09:14:04.050Z,100726.89
2023-04-16T09:16:34.094Z,100729.68
2023-04-16T09:19:02.350Z,100731.66
2023-04-16T09:21:31.243Z,100728.75
2023-04-16T09:24:00.549Z,100737.22
2023-04-16T09:26:29.566Z,100731.77
2023-04-16T09:28:57.827Z,100737.21
2023-04-16T09:31:26.029Z,100728.46
2023-04-16T09:34:02.400Z,100724.48
2023-04-16T09:36:31.672Z,100720.21
2023-04-16T09:39:00.058Z,100719.94
2023-04-16T09:41:33.069Z,100718.02
2023-04-16T09:44:04.213Z,100721.05
2023-04-16T09:46:51.328Z,100724.89
2023-04-16T09:49:19.458Z,100726.79
2023-04-16T09:51:49.887Z,100729.63
2023-04-16T09:54:18.090Z,100730.77
2023-04-16T09:56:46.989Z,100720.69
2023-04-16T09:59:19.235Z,100737.86
2023-04-16T10:01:49.644Z,100733.55
2023-04-16T10:04:18.311Z,100732.17
2023-04-16T10:07:05.612Z,100728.96
2023-04-16T10:09:38.428Z,100741.01
2023-04-16T10:12:07.421Z,100730.71
2023-04-16T10:14:36.378Z,100727.02
2023-04-16T10:17:06.248Z,100732.54
2023-04-16T10:19:36.100Z,100746.42
2023-04-16T10:22:04.950Z,100739.77
2023-04-16T10:24:34.153Z,100739.39
2023-04-16T10:27:02.824Z,100736.77
2023-04-16T10:29:31.706Z,100722.55
2023-04-16T10:32:00.074Z,100731.09
2023-04-16T10:34:29.175Z,100724.85
2023-04-16T10:36:57.767Z,100734.28
2023-04-16T10:39:28.181Z,100717.32
2023-04-16T10:42:12.320Z,100717.61
2023-04-16T10:44:44.408Z,100723.30
2023-04-16T10:47:14.144Z,100720.08
2023-04-16T10:49:44.005Z,100721.79
2023-04-16T10:52:14.072Z,100721.61
2023-04-16T10:54:42.338Z,100718.42
2023-04-16T10:57:16.391Z,100716.84
2023-04-16T10:59:44.683Z,100716.98
2023-04-16T11:02:19.589Z,100715.95
2023-04-16T11:04:48.971Z,100716.96
2023-04-16T11:07:18.752Z,100712.55
2023-04-16T11:10:06.132Z,100721.89
2023-04-16T11:12:41.624Z,100717.63
2023-04-16T11:15:15.946Z,100711.11
2023-04-16T11:17:50.624Z,100700.60
2023-04-16T11:20:25.700Z,100704.22
2023-04-16T11:22:56.235Z,100708.64
2023-04-16T11:25:34.103Z,100701.44
2023-04-16T11:28:02.726Z,100696.83
2023-04-16T11:30:34.182Z,100705.02
2023-04-16T11:33:06.248Z,100688.97
2023-04-16T11:35:34.905Z,100685.85
2023-04-16T11:38:03.215Z,100695.94
2023-04-16T11:40:31.836Z,100672.69
2023-04-16T11:43:14.448Z,100684.48
2023-04-16T11:46:03.728Z,100675.25
2023-04-16T11:48:52.841Z,100692.08
2023-04-16T11:51:23.454Z,100667.95
2023-04-16T11:53:56.293Z,100678.16
2023-04-16T11:56:35.349Z,100667.38
2023-04-16T11:59:11.540Z,100662.65
2023-04-16T12:01:41.349Z,100655.42
2023-04-16T12:04:09.816Z,100670.88
2023-04-16T12:06:38.385Z,100658.33
2023-04-16T12:09:25.659Z,100662.23
2023-04-16T12:11:54.061Z,100672.78
2023-04-16T12:14:23.017Z,100671.30
2023-04-16T12:16:51.751Z,100657.20
2023-04-16T12:19:20.193Z,100663.27
2023-04-16T12:21:49.597Z,100656.64
2023-04-16T12:24:24.074Z,100651.75
2023-04-16T12:26:57.640Z,100660.02
2023-04-16T12:29:27.569Z,100653.13
2023-04-16T12:31:55.922Z,100647.10
2023-04-16T12:34:48.195Z,100656.14
2023-04-16T12:37:13.212Z,100641.73
2023-04-16T12:39:42.153Z,100649.08
2023-04-16T12:42:11.570Z,100644.98
2023-04-16T12:44:39.747Z,100644.84
2023-04-16T12:47:07.844Z,100644.04
2023-04-16T12:49:37.778Z,100642.58
2023-04-16T12:52:06.787Z,100648.30
2023-04-16T12:54:35.007Z,100648.00
2023-04-16T12:57:03.882Z,100648.48
2023-04-16T12:59:32.193Z,100655.95
2023-04-16T13:02:02.060Z,100650.53
2023-04-16T13:04:30.510Z,100643.14
2023-04-16T13:06:58.893Z,100636.56
2023-04-16T13:09:27.457Z,100635.91
2023-04-16T13:11:55.638Z,100631.50
2023-04-16T13:14:24.314Z,100632.50
2023-04-16T13:16:52.459Z,100625.70
2023-04-16T13:19:21.300Z,100638.52
2023-04-16T13:21:49.604Z,100627.77
2023-04-16T13:24:17.759Z,100626.64
2023-04-16T13:26:45.997Z,100633.63
2023-04-16T13:29:14.243Z,100635.50
2023-04-16T13:31:42.453Z,100639.11
2023-04-16T13:34:11.160Z,100637.95
2023-04-16T13:36:39.467Z,100633.31
2023-04-16T13:39:11.661Z,100638.86
2023-04-16T13:41:40.872Z,100636.55
2023-04-16T13:44:09.124Z,100630.00
2023-04-16T13:46:37.579Z,100627.72
2023-04-16T13:49:05.991Z,100628.38
2023-04-16T13:51:34.480Z,100626.51
2023-04-16T13:54:03.693Z,100635.60
2023-04-16T13:56:32.470Z,100621.66
2023-04-16T13:59:00.851Z,100626.09
2023-04-16T14:01:29.236Z,100620.58
2023-04-16T14:03:57.545Z,100621.63
2023-04-16T14:06:26.104Z,100620.98
2023-04-16T14:08:54.599Z,100634.36
2023-04-16T14:11:23.717Z,100625.67
2023-04-16T14:13:52.231Z,100634.39
2023-04-16T14:16:20.587Z,100623.55
2023-04-16T14:18:48.920Z,100626.98
2023-04-16T14:21:17.395Z,100623.67
2023-04-16T14:23:45.714Z,100620.77
2023-04-16T14:26:16.312Z,100620.29
2023-04-16T14:28:44.731Z,100623.33
2023-04-16T14:31:13.777Z,100620.43
2023-04-16T14:33:42.203Z,100629.69
2023-04-16T14:36:10.797Z,100620.77
2023-04-16T14:38:38.868Z,100630.92
2023-04-16T14:41:07.147Z,100629.25
2023-04-16T14:43:36.408Z,100631.23
2023-04-16T14:46:06.788Z,100634.63
2023-04-16T14:48:36.424Z,100631.29
2023-04-16T14:51:04.673Z,100631.65
2023-04-16T14:53:34.532Z,100631.95
2023-04-16T14:56:02.870Z,100632.65
2023-04-16T14:58:31.730Z,100628.55
2023-04-16T15:00:59.845Z,100627.63
2023-04-16T15:03:28.627Z,100629.92
2023-04-16T15:06:00.348Z,100637.61
2023-04-16T15:08:28.724Z,100642.95
2023-04-16T15:10:57.074Z,100640.61
2023-04-16T15:13:33.751Z,100632.23
2023-04-16T15:16:02.017Z,100641.73
2023-04-16T15:18:30.804Z,100637.77
2023-04-16T15:20:58.984Z,100634.23
2023-04-16T15:23:27.060Z,100639.84
2023-04-16T15:25:55.444Z,100643.92
2023-04-16T15:28:23.935Z,100640.71
2023-04-16T15:30:52.592Z,100641.13
2023-04-16T15:33:21.620Z,100639.99
2023-04-16T15:35:51.708Z,100638.20
2023-04-16T15:38:21.564Z,100639.50
2023-04-16T15:40:49.836Z,100638.63
2023-04-16T15:43:17.920Z,100640.66
2023-04-16T15:45:46.297Z,100645.14
2023-04-16T15:48:14.649Z,100645.84
2023-04-16T15:50:42.848Z,100643.55
2023-04-16T15:53:11.451Z,100642.77
2023-04-16T15:55:39.546Z,100651.91
2023-04-16T15:58:07.822Z,100652.40
2023-04-16T16:00:36.215Z,100651.92
2023-04-16T16:03:04.678Z,100649.45
2023-04-16T16:05:33.198Z,100654.82
2023-04-16T16:08:01.930Z,100653.75
2023-04-16T16:10:30.332Z,100654.42
2023-04-16T16:13:02.194Z,100654.79
2023-04-16T16:15:30.574Z,100649.83
2023-04-16T16:17:58.876Z,100651.35
2023-04-16T16:20:27.753Z,100654.63
2023-04-16T16:22:56.762Z,100654.27
2023-04-16T16:25:25.133Z,100658.86
2023-04-16T16:27:53.320Z,100663.79
2023-04-16T16:30:21.499Z,100662.62
2023-04-16T16:32:49.763Z,100665.25
2023-04-16T16:35:18.247Z,100668.27
2023-04-16T16:37:46.418Z,100668.70
2023-04-16T16:40:14.973Z,100667.52
2023-04-16T16:42:43.224Z,100668.86
2023-04-16T16:45:11.752Z,100666.86
2023-04-16T16:47:40.811Z,100670.52
2023-04-16T16:50:11.586Z,100673.67
2023-04-16T16:52:40.247Z,100673.20
2023-04-16T16:55:11.290Z,100673.69
2023-04-16T16:57:40.114Z,100675.02
2023-04-16T17:00:12.014Z,100678.15
2023-04-16T17:02:41.214Z,100681.52
2023-04-16T17:05:10.081Z,100683.36
2023-04-16T17:07:39.770Z,100684.71
2023-04-16T17:10:11.214Z,100685.54
2023-04-16T17:12:40.176Z,100688.08
2023-04-16T17:15:09.051Z,100689.20
2023-04-16T17:17:37.999Z,100687.48
2023-04-16T17:20:09.703Z,100690.15
2023-04-16T17:22:39.752Z,100691.86
2023-04-16T17:25:08.509Z,100693.20
2023-04-16T17:27:36.996Z,100691.50
2023-04-16T17:30:06.764Z,100695.16
2023-04-16T17:32:35.289Z,100694.82
2023-04-16T17:35:04.510Z,100696.13
2023-04-16T17:37:33.432Z,100699.53
2023-04-16T17:40:01.698Z,100706.45
2023-04-16T17:42:30.405Z,100709.48
2023-04-16T17:44:58.575Z,100709.73
2023-04-16T17:47:26.860Z,100711.95
2023-04-16T17:49:55.561Z,100711.40
2023-04-16T17:52:24.023Z,100712.65
2023-04-16T17:54:53.360Z,100710.36
2023-04-16T17:57:21.526Z,100707.23
2023-04-16T17:59:49.795Z,100708.43
2023-04-16T18:02:18.269Z,100700.30
2023-04-16T18:04:47.132Z,100702.52
2023-04-16T18:07:15.437Z,100704.68
2023-04-16T18:09:44.549Z,100703.02
2023-04-16T18:12:12.869Z,100699.63
2023-04-16T18:14:44.791Z,100703.08
2023-04-16T18:17:13.274Z,100704.14
2023-04-16T18:19:43.906Z,100705.77
2023-04-16T18:22:13.428Z,100707.95
2023-04-16T18:24:41.509Z,100710.55
2023-04-16T18:27:09.770Z,100712.73
2023-04-16T18:29:39.898Z,100714.45
2023-04-16T18:32:11.673Z,100714.88
2023-04-16T18:34:40.766Z,100712.50
2023-04-16T18:37:08.953Z,100716.92
2023-04-16T18:39:37.549Z,100715.58
2023-04-16T18:42:06.418Z,100712.98
2023-04-16T18:44:35.309Z,100717.09
2023-04-16T18:47:03.855Z,100714.05
2023-04-16T18:49:32.893Z,100713.59
2023-04-16T18:52:01.937Z,100714.70
2023-04-16T18:54:30.680Z,100716.07
2023-04-16T18:57:00.410Z,100711.95
2023-04-16T18:59:29.492Z,100712.61
2023-04-16T19:01:57.618Z,100713.55
2023-04-16T19:04:26.003Z,100714.20
2023-04-16T19:06:54.120Z,100713.88
2023-04-16T19:09:22.621Z,100711.94
2023-04-16T19:11:51.117Z,100708.84
2023-04-16T19:14:20.143Z,100709.93
2023-04-16T19:16:48.564Z,100710.01
2023-04-16T19:19:17.422Z,100709.78
2023-04-16T19:21:45.969Z,100704.23
2023-04-16T19:24:14.118Z,100709.92
2023-04-16T19:26:42.432Z,100712.75
2023-04-16T19:29:10.959Z,100710.37
2023-04-16T19:31:39.577Z,100713.81
2023-04-16T19:34:07.987Z,100714.19
2023-04-16T19:36:36.358Z,100715.14
2023-04-16T19:39:04.996Z,100709.05
2023-04-16T19:41:33.497Z,100714.15
2023-04-16T19:44:01.847Z,100716.73
2023-04-16T19:46:30.420Z,100709.73
2023-04-16T19:48:58.607Z,100713.98
2023-04-16T19:51:27.399Z,100712.34
2023-04-16T19:53:56.130Z,100715.99
2023-04-16T19:56:24.586Z,100713.73
2023-04-16T19:58:52.949Z,100714.69
2023-04-16T20:01:21.151Z,100717.45
2023-04-16T20:03:49.656Z,100723.36
2023-04-16T20:06:18.105Z,100724.05
2023-04-16T20:08:46.719Z,100727.63
2023-04-16T20:11:15.785Z,100725.41
2023-04-16T20:13:47.777Z,100721.52
2023-04-16T20:16:17.605Z,100726.46
2023-04-16T20:18:46.203Z,100728.64
2023-04-16T20:21:14.427Z,100722.06
2023-04-16T20:23:42.826Z,100729.71
2023-04-16T20:26:14.637Z,100730.63
2023-04-16T20:28:42.951Z,100730.81
2023-04-16T20:31:12.005Z,100731.73
2023-04-16T20:33:40.307Z,100729.86
2023-04-16T20:36:08.714Z,100731.48
2023-04-16T20:38:37.715Z,100732.16
2023-04-16T20:41:10.374Z,100738.39
2023-04-16T20:43:42.215Z,100736.66
2023-04-16T20:46:11.403Z,100737.54
2023-04-16T20:48:39.857Z,100733.82
2023-04-16T20:51:09.585Z,100737.48
2023-04-16T20:53:38.438Z,100737.05
2023-04-16T20:56:07.076Z,100741.67
2023-04-16T20:58:35.657Z,100736.84
2023-04-16T21:01:06.108Z,100735.42
2023-04-16T21:03:34.586Z,100732.56
2023-04-16T21:06:03.965Z,100726.02
2023-04-16T21:08:32.197Z,100718.64
2023-04-16T21:11:00.820Z,100721.77
2023-04-16T21:13:29.280Z,100725.33
2023-04-16T21:15:57.503Z,100717.68
2023-04-16T21:18:26.192Z,100713.33
2023-04-16T21:20:54.355Z,100712.19
2023-04-16T21:23:22.536Z,100711.85
2023-04-16T21:25:50.912Z,100711.33
2023-04-16T21:28:19.606Z,100698.05
2023-04-16T21:30:51.801Z,100702.03
2023-04-16T21:33:21.733Z,100695.34
2023-04-16T21:35:53.554Z,100694.20
2023-04-16T21:38:22.552Z,100696.20
2023-04-16T21:40:53.853Z,100688.88
2023-04-16T21:43:24.640Z,100686.67
2023-04-16T21:45:53.734Z,100684.15
2023-04-16T21:48:22.326Z,100682.52
2023-04-16T21:50:58.245Z,100679.63
2023-04-16T21:53:28.177Z,100674.73
2023-04-16T21:55:56.391Z,100680.36
2023-04-16T21:58:25.989Z,100680.73
2023-04-16T22:00:54.311Z,100679.16
2023-04-16T22:03:26.735Z,100675.93
2023-04-16T22:06:01.682Z,100674.06
2023-04-16T22:08:31.101Z,100673.37
2023-04-16T22:11:01.698Z,100671.48
2023-04-16T22:13:36.597Z,100669.87
2023-04-16T22:16:05.877Z,100672.95
2023-04-16T22:18:34.242Z,100671.02
2023-04-16T22:21:02.922Z,100671.68
2023-04-16T22:23:31.450Z,100672.45
2023-04-16T22:25:59.897Z,100672.73
2023-04-16T22:28:28.248Z,100667.59
2023-04-16T22:30:57.067Z,100664.08
2023-04-16T22:33:25.455Z,100653.93
2023-04-16T22:35:53.631Z,100652.16
2023-04-16T22:38:22.710Z,100651.27
2023-04-16T22:40:51.157Z,100648.21
2023-04-16T22:43:20.222Z,100647.24
2023-04-16T22:45:48.851Z,100644.27
2023-04-16T22:48:17.487Z,100639.43
2023-04-16T22:50:48.550Z,100639.77
2023-04-16T22:53:17.435Z,100636.12
2023-04-16T22:55:45.610Z,100631.10
2023-04-16T22:58:13.827Z,100628.34
2023-04-16T23:00:42.092Z,100628.24
2023-04-16T23:03:10.631Z,100626.51
2023-04-16T23:05:38.779Z,100627.79
2023-04-16T23:08:07.121Z,100623.14
2023-04-16T23:10:36.459Z,100624.59
2023-04-16T23:13:05.218Z,100622.39
2023-04-16T23:15:33.404Z,100622.45
2023-04-16T23:18:01.902Z,100629.14
2023-04-16T23:20:30.671Z,100624.27
2023-04-16T23:22:58.958Z,100618.55
2023-04-16T23:25:27.332Z,100626.16
2023-04-16T23:27:56.841Z,100618.11
2023-04-16T23:30:25.118Z,100621.77
2023-04-16T23:32:53.375Z,100622.15
2023-04-16T23:35:22.990Z,100623.81
2023-04-16T23:37:51.724Z,100627.71
2023-04-16T23:40:19.880Z,100629.97
2023-04-16T23:42:48.366Z,100625.92
2023-04-16T23:45:16.513Z,100626.07
2023-04-16T23:47:45.001Z,100628.64
2023-04-16T23:50:13.633Z,100637.14
2023-04-16T23:52:42.043Z,100636.83
2023-04-16T23:55:10.284Z,100633.02
2023-04-16T23:57:39.174Z,100633.65
